Avon, Massachusetts
Current Conditions -  °F | °C
As of 7:53 PM on Monday 24 Nov 2014 (Local Time) from KOWD Reporting Station
Clear Clear  
Wind Chill: 63°   Ceiling: Unl
Heat Index: 63°   Visibility: 10mi
Dew Point: 56°   Wind: 12mph
Humidity: 78%   Direction: 220°SW
Pressure: 29.66"   Gusts: 20mph
Location:  42.13°N, 71.04°W
Report Text: KOWD 250053Z AUTO 22010G17KT 10SM CLR 17/13 A2966 RMK AO2 SLP043 T01720133
Loading
Personal Weather Stations






























Interactive Weather Map New forecast layout! Learn more

10-Day Weather Forecast

Advertisements
Track Severe Weather on mobile